sensor_id;sensor_type;location;lat;lon;timestamp;P1;durP1;ratioP1;P2;durP2;ratioP2
65289;SDS011;51893;59.754;10.110;2024-03-06T00:00:04;2.30;;;2.10;;
65289;SDS011;51893;59.754;10.110;2024-03-06T00:02:35;3.40;;;2.50;;
65289;SDS011;51893;59.754;10.110;2024-03-06T00:05:04;2.30;;;2.10;;
65289;SDS011;51893;59.754;10.110;2024-03-06T00:07:32;2.70;;;2.50;;
65289;SDS011;51893;59.754;10.110;2024-03-06T00:10:02;2.50;;;2.30;;
65289;SDS011;51893;59.754;10.110;2024-03-06T00:12:33;2.10;;;1.90;;
65289;SDS011;51893;59.754;10.110;2024-03-06T00:15:01;3.40;;;2.50;;
65289;SDS011;51893;59.754;10.110;2024-03-06T00:17:30;2.40;;;2.10;;
65289;SDS011;51893;59.754;10.110;2024-03-06T00:19:58;3.00;;;2.50;;
65289;SDS011;51893;59.754;10.110;2024-03-06T00:22:26;1.90;;;1.80;;
65289;SDS011;51893;59.754;10.110;2024-03-06T00:24:54;2.30;;;2.00;;
65289;SDS011;51893;59.754;10.110;2024-03-06T00:27:22;3.40;;;1.70;;
65289;SDS011;51893;59.754;10.110;2024-03-06T00:29:50;3.80;;;2.80;;
65289;SDS011;51893;59.754;10.110;2024-03-06T00:32:18;4.30;;;2.90;;
65289;SDS011;51893;59.754;10.110;2024-03-06T00:34:46;2.30;;;2.10;;
65289;SDS011;51893;59.754;10.110;2024-03-06T00:37:14;2.10;;;2.00;;
65289;SDS011;51893;59.754;10.110;2024-03-06T00:39:43;5.10;;;2.60;;
65289;SDS011;51893;59.754;10.110;2024-03-06T00:42:11;2.80;;;2.10;;
65289;SDS011;51893;59.754;10.110;2024-03-06T00:44:41;3.20;;;2.40;;
65289;SDS011;51893;59.754;10.110;2024-03-06T00:47:11;4.40;;;3.00;;
65289;SDS011;51893;59.754;10.110;2024-03-06T00:49:39;3.10;;;2.70;;
65289;SDS011;51893;59.754;10.110;2024-03-06T00:52:09;3.60;;;2.60;;
65289;SDS011;51893;59.754;10.110;2024-03-06T00:54:37;3.30;;;2.10;;
65289;SDS011;51893;59.754;10.110;2024-03-06T00:57:05;2.70;;;2.30;;
65289;SDS011;51893;59.754;10.110;2024-03-06T00:59:34;3.60;;;2.00;;
65289;SDS011;51893;59.754;10.110;2024-03-06T01:02:02;4.70;;;2.90;;
65289;SDS011;51893;59.754;10.110;2024-03-06T01:04:30;4.20;;;2.50;;
65289;SDS011;51893;59.754;10.110;2024-03-06T01:06:58;3.10;;;2.50;;
65289;SDS011;51893;59.754;10.110;2024-03-06T01:09:26;5.10;;;2.70;;
65289;SDS011;51893;59.754;10.110;2024-03-06T01:11:55;2.50;;;2.30;;
65289;SDS011;51893;59.754;10.110;2024-03-06T01:14:23;4.20;;;2.40;;
65289;SDS011;51893;59.754;10.110;2024-03-06T01:16:51;4.90;;;2.60;;
65289;SDS011;51893;59.754;10.110;2024-03-06T01:19:19;7.40;;;2.70;;
65289;SDS011;51893;59.754;10.110;2024-03-06T01:21:47;3.40;;;2.70;;
65289;SDS011;51893;59.754;10.110;2024-03-06T01:24:16;2.80;;;2.10;;
65289;SDS011;51893;59.754;10.110;2024-03-06T01:26:44;2.90;;;2.50;;
65289;SDS011;51893;59.754;10.110;2024-03-06T01:29:12;3.40;;;2.50;;
65289;SDS011;51893;59.754;10.110;2024-03-06T01:31:40;3.20;;;2.70;;
65289;SDS011;51893;59.754;10.110;2024-03-06T01:34:09;2.90;;;2.60;;
65289;SDS011;51893;59.754;10.110;2024-03-06T01:36:37;2.20;;;1.70;;
65289;SDS011;51893;59.754;10.110;2024-03-06T01:39:05;3.30;;;2.40;;
65289;SDS011;51893;59.754;10.110;2024-03-06T01:41:34;5.70;;;2.30;;
65289;SDS011;51893;59.754;10.110;2024-03-06T01:44:02;2.90;;;2.30;;
65289;SDS011;51893;59.754;10.110;2024-03-06T01:46:31;4.70;;;2.70;;
65289;SDS011;51893;59.754;10.110;2024-03-06T01:48:59;3.20;;;2.50;;
65289;SDS011;51893;59.754;10.110;2024-03-06T01:51:32;4.30;;;2.60;;
65289;SDS011;51893;59.754;10.110;2024-03-06T01:54:01;3.40;;;2.60;;
65289;SDS011;51893;59.754;10.110;2024-03-06T01:56:33;3.30;;;2.60;;
65289;SDS011;51893;59.754;10.110;2024-03-06T01:59:03;4.50;;;2.80;;
65289;SDS011;51893;59.754;10.110;2024-03-06T02:01:32;3.20;;;2.40;;
65289;SDS011;51893;59.754;10.110;2024-03-06T02:04:00;2.20;;;1.70;;
65289;SDS011;51893;59.754;10.110;2024-03-06T02:06:29;3.30;;;2.30;;
65289;SDS011;51893;59.754;10.110;2024-03-06T02:08:58;3.00;;;2.20;;
65289;SDS011;51893;59.754;10.110;2024-03-06T02:11:26;3.50;;;2.30;;
65289;SDS011;51893;59.754;10.110;2024-03-06T02:13:56;4.50;;;2.40;;
65289;SDS011;51893;59.754;10.110;2024-03-06T02:16:24;2.90;;;2.30;;
65289;SDS011;51893;59.754;10.110;2024-03-06T02:18:56;3.80;;;2.60;;
65289;SDS011;51893;59.754;10.110;2024-03-06T02:21:27;4.40;;;2.10;;
65289;SDS011;51893;59.754;10.110;2024-03-06T02:23:55;5.00;;;2.60;;
65289;SDS011;51893;59.754;10.110;2024-03-06T02:26:23;1.60;;;1.50;;
65289;SDS011;51893;59.754;10.110;2024-03-06T02:28:52;4.30;;;2.50;;
65289;SDS011;51893;59.754;10.110;2024-03-06T02:31:22;5.70;;;2.10;;
65289;SDS011;51893;59.754;10.110;2024-03-06T02:33:50;2.80;;;2.50;;
65289;SDS011;51893;59.754;10.110;2024-03-06T02:36:19;2.30;;;2.10;;
65289;SDS011;51893;59.754;10.110;2024-03-06T02:38:47;2.50;;;2.30;;
65289;SDS011;51893;59.754;10.110;2024-03-06T02:41:16;3.10;;;2.20;;
65289;SDS011;51893;59.754;10.110;2024-03-06T02:43:45;3.40;;;2.00;;
65289;SDS011;51893;59.754;10.110;2024-03-06T02:46:14;2.60;;;2.30;;
65289;SDS011;51893;59.754;10.110;2024-03-06T02:48:42;3.00;;;2.40;;
65289;SDS011;51893;59.754;10.110;2024-03-06T02:51:10;4.30;;;2.80;;
65289;SDS011;51893;59.754;10.110;2024-03-06T02:53:37;3.10;;;2.70;;
65289;SDS011;51893;59.754;10.110;2024-03-06T02:56:05;2.40;;;1.80;;
65289;SDS011;51893;59.754;10.110;2024-03-06T02:58:35;2.60;;;2.40;;
65289;SDS011;51893;59.754;10.110;2024-03-06T03:01:03;2.80;;;2.10;;
65289;SDS011;51893;59.754;10.110;2024-03-06T03:03:31;3.40;;;2.40;;
65289;SDS011;51893;59.754;10.110;2024-03-06T03:05:59;3.30;;;2.20;;
65289;SDS011;51893;59.754;10.110;2024-03-06T03:08:28;2.80;;;2.00;;
65289;SDS011;51893;59.754;10.110;2024-03-06T03:10:56;4.40;;;2.40;;
65289;SDS011;51893;59.754;10.110;2024-03-06T03:13:26;2.60;;;2.40;;
65289;SDS011;51893;59.754;10.110;2024-03-06T03:15:54;4.30;;;2.40;;
65289;SDS011;51893;59.754;10.110;2024-03-06T03:18:22;2.90;;;2.30;;
65289;SDS011;51893;59.754;10.110;2024-03-06T03:20:50;2.50;;;1.80;;
65289;SDS011;51893;59.754;10.110;2024-03-06T03:23:18;3.10;;;2.30;;
65289;SDS011;51893;59.754;10.110;2024-03-06T03:25:50;2.50;;;2.20;;
65289;SDS011;51893;59.754;10.110;2024-03-06T03:28:18;2.30;;;2.10;;
65289;SDS011;51893;59.754;10.110;2024-03-06T03:30:46;2.80;;;2.60;;
65289;SDS011;51893;59.754;10.110;2024-03-06T03:33:15;6.00;;;2.60;;
65289;SDS011;51893;59.754;10.110;2024-03-06T03:35:43;2.70;;;2.30;;
65289;SDS011;51893;59.754;10.110;2024-03-06T03:38:11;3.20;;;1.90;;
65289;SDS011;51893;59.754;10.110;2024-03-06T03:40:40;2.50;;;1.90;;
65289;SDS011;51893;59.754;10.110;2024-03-06T03:43:08;2.10;;;1.90;;
65289;SDS011;51893;59.754;10.110;2024-03-06T03:45:36;2.30;;;2.00;;
65289;SDS011;51893;59.754;10.110;2024-03-06T03:48:05;2.20;;;2.00;;
65289;SDS011;51893;59.754;10.110;2024-03-06T03:50:33;2.20;;;2.00;;
65289;SDS011;51893;59.754;10.110;2024-03-06T03:53:01;2.90;;;1.70;;
65289;SDS011;51893;59.754;10.110;2024-03-06T03:55:29;3.50;;;1.70;;
65289;SDS011;51893;59.754;10.110;2024-03-06T03:57:57;1.80;;;1.60;;
65289;SDS011;51893;59.754;10.110;2024-03-06T04:00:25;1.60;;;1.50;;
65289;SDS011;51893;59.754;10.110;2024-03-06T04:02:53;1.70;;;1.60;;
65289;SDS011;51893;59.754;10.110;2024-03-06T04:05:22;2.00;;;1.80;;
65289;SDS011;51893;59.754;10.110;2024-03-06T04:07:51;2.30;;;1.90;;
65289;SDS011;51893;59.754;10.110;2024-03-06T04:10:19;1.70;;;1.60;;
65289;SDS011;51893;59.754;10.110;2024-03-06T04:12:47;1.70;;;1.30;;
65289;SDS011;51893;59.754;10.110;2024-03-06T04:15:15;1.80;;;1.40;;
65289;SDS011;51893;59.754;10.110;2024-03-06T04:17:43;1.70;;;1.60;;
65289;SDS011;51893;59.754;10.110;2024-03-06T04:20:11;1.50;;;1.40;;
65289;SDS011;51893;59.754;10.110;2024-03-06T04:22:44;2.50;;;1.60;;
65289;SDS011;51893;59.754;10.110;2024-03-06T04:25:14;1.80;;;1.70;;
65289;SDS011;51893;59.754;10.110;2024-03-06T04:27:42;13.00;;;1.70;;
65289;SDS011;51893;59.754;10.110;2024-03-06T04:30:10;1.40;;;1.30;;
65289;SDS011;51893;59.754;10.110;2024-03-06T04:32:40;2.50;;;1.90;;
65289;SDS011;51893;59.754;10.110;2024-03-06T04:35:09;1.60;;;1.50;;
65289;SDS011;51893;59.754;10.110;2024-03-06T04:37:37;2.00;;;1.50;;
65289;SDS011;51893;59.754;10.110;2024-03-06T04:40:06;1.90;;;1.50;;
65289;SDS011;51893;59.754;10.110;2024-03-06T04:42:36;1.90;;;1.30;;
65289;SDS011;51893;59.754;10.110;2024-03-06T04:45:11;1.70;;;1.60;;
65289;SDS011;51893;59.754;10.110;2024-03-06T04:47:43;2.20;;;1.80;;
65289;SDS011;51893;59.754;10.110;2024-03-06T04:50:12;1.40;;;1.30;;
65289;SDS011;51893;59.754;10.110;2024-03-06T04:52:43;1.40;;;1.30;;
65289;SDS011;51893;59.754;10.110;2024-03-06T04:55:13;1.80;;;1.60;;
65289;SDS011;51893;59.754;10.110;2024-03-06T04:57:43;1.60;;;1.50;;
65289;SDS011;51893;59.754;10.110;2024-03-06T05:00:12;1.80;;;1.40;;
65289;SDS011;51893;59.754;10.110;2024-03-06T05:02:40;1.60;;;1.50;;
65289;SDS011;51893;59.754;10.110;2024-03-06T05:05:28;1.30;;;1.20;;
65289;SDS011;51893;59.754;10.110;2024-03-06T05:08:14;1.40;;;0.90;;
65289;SDS011;51893;59.754;10.110;2024-03-06T05:11:01;2.80;;;1.60;;
65289;SDS011;51893;59.754;10.110;2024-03-06T05:13:47;1.90;;;1.30;;
65289;SDS011;51893;59.754;10.110;2024-03-06T05:16:32;1.70;;;1.60;;
65289;SDS011;51893;59.754;10.110;2024-03-06T05:19:18;1.30;;;1.20;;
65289;SDS011;51893;59.754;10.110;2024-03-06T05:22:04;2.50;;;1.30;;
65289;SDS011;51893;59.754;10.110;2024-03-06T05:24:50;1.80;;;1.50;;
65289;SDS011;51893;59.754;10.110;2024-03-06T05:27:35;1.70;;;1.60;;
65289;SDS011;51893;59.754;10.110;2024-03-06T05:30:21;1.20;;;1.10;;
65289;SDS011;51893;59.754;10.110;2024-03-06T05:33:06;1.70;;;1.10;;
65289;SDS011;51893;59.754;10.110;2024-03-06T05:35:52;1.30;;;1.20;;
65289;SDS011;51893;59.754;10.110;2024-03-06T05:38:38;1.40;;;1.30;;
65289;SDS011;51893;59.754;10.110;2024-03-06T05:41:24;2.10;;;1.30;;
65289;SDS011;51893;59.754;10.110;2024-03-06T05:44:10;1.20;;;1.10;;
65289;SDS011;51893;59.754;10.110;2024-03-06T05:46:56;1.00;;;0.90;;
65289;SDS011;51893;59.754;10.110;2024-03-06T05:49:42;2.10;;;1.50;;
65289;SDS011;51893;59.754;10.110;2024-03-06T05:52:28;3.00;;;1.30;;
65289;SDS011;51893;59.754;10.110;2024-03-06T05:55:13;5.10;;;1.60;;
65289;SDS011;51893;59.754;10.110;2024-03-06T05:58:00;1.20;;;1.10;;
65289;SDS011;51893;59.754;10.110;2024-03-06T06:00:41;1.20;;;1.10;;
65289;SDS011;51893;59.754;10.110;2024-03-06T06:03:09;0.90;;;0.90;;
65289;SDS011;51893;59.754;10.110;2024-03-06T06:05:40;5.60;;;1.20;;
65289;SDS011;51893;59.754;10.110;2024-03-06T06:08:08;1.30;;;1.20;;
65289;SDS011;51893;59.754;10.110;2024-03-06T06:10:37;2.20;;;1.60;;
65289;SDS011;51893;59.754;10.110;2024-03-06T06:13:05;1.60;;;1.20;;
65289;SDS011;51893;59.754;10.110;2024-03-06T06:15:33;3.80;;;1.40;;
65289;SDS011;51893;59.754;10.110;2024-03-06T06:18:01;1.50;;;1.40;;
65289;SDS011;51893;59.754;10.110;2024-03-06T06:20:29;8.10;;;1.30;;
65289;SDS011;51893;59.754;10.110;2024-03-06T06:22:58;2.10;;;1.40;;
65289;SDS011;51893;59.754;10.110;2024-03-06T06:25:26;5.70;;;1.30;;
65289;SDS011;51893;59.754;10.110;2024-03-06T06:27:54;1.40;;;1.30;;
65289;SDS011;51893;59.754;10.110;2024-03-06T06:30:22;0.90;;;0.90;;
65289;SDS011;51893;59.754;10.110;2024-03-06T06:32:50;0.90;;;0.90;;
65289;SDS011;51893;59.754;10.110;2024-03-06T06:35:18;2.60;;;1.40;;
65289;SDS011;51893;59.754;10.110;2024-03-06T06:37:46;4.40;;;1.20;;
65289;SDS011;51893;59.754;10.110;2024-03-06T06:40:14;2.10;;;1.30;;
65289;SDS011;51893;59.754;10.110;2024-03-06T06:42:47;2.00;;;1.60;;
65289;SDS011;51893;59.754;10.110;2024-03-06T06:45:20;0.80;;;0.80;;
65289;SDS011;51893;59.754;10.110;2024-03-06T06:47:51;4.40;;;1.50;;
65289;SDS011;51893;59.754;10.110;2024-03-06T06:50:19;1.40;;;1.30;;
65289;SDS011;51893;59.754;10.110;2024-03-06T06:52:53;1.70;;;1.60;;
65289;SDS011;51893;59.754;10.110;2024-03-06T06:55:21;6.70;;;1.50;;
65289;SDS011;51893;59.754;10.110;2024-03-06T06:57:52;1.80;;;1.40;;
65289;SDS011;51893;59.754;10.110;2024-03-06T07:00:20;1.40;;;1.30;;
65289;SDS011;51893;59.754;10.110;2024-03-06T07:02:51;1.50;;;1.40;;
65289;SDS011;51893;59.754;10.110;2024-03-06T07:05:19;1.40;;;1.30;;
65289;SDS011;51893;59.754;10.110;2024-03-06T07:07:47;2.90;;;1.50;;
65289;SDS011;51893;59.754;10.110;2024-03-06T07:10:18;1.30;;;1.10;;
65289;SDS011;51893;59.754;10.110;2024-03-06T07:12:46;1.90;;;1.30;;
65289;SDS011;51893;59.754;10.110;2024-03-06T07:15:14;1.60;;;1.50;;
65289;SDS011;51893;59.754;10.110;2024-03-06T07:17:42;1.10;;;1.10;;
65289;SDS011;51893;59.754;10.110;2024-03-06T07:20:11;1.50;;;1.40;;
65289;SDS011;51893;59.754;10.110;2024-03-06T07:22:39;4.00;;;1.70;;
65289;SDS011;51893;59.754;10.110;2024-03-06T07:25:08;1.60;;;1.50;;
65289;SDS011;51893;59.754;10.110;2024-03-06T07:27:37;1.40;;;1.20;;
65289;SDS011;51893;59.754;10.110;2024-03-06T07:30:05;1.60;;;1.30;;
65289;SDS011;51893;59.754;10.110;2024-03-06T07:32:36;1.30;;;1.20;;
65289;SDS011;51893;59.754;10.110;2024-03-06T07:35:06;1.30;;;1.10;;
65289;SDS011;51893;59.754;10.110;2024-03-06T07:37:34;5.10;;;1.50;;
65289;SDS011;51893;59.754;10.110;2024-03-06T07:40:02;1.30;;;1.20;;
65289;SDS011;51893;59.754;10.110;2024-03-06T07:42:32;2.70;;;1.30;;
65289;SDS011;51893;59.754;10.110;2024-03-06T07:45:01;2.00;;;0.80;;
65289;SDS011;51893;59.754;10.110;2024-03-06T07:47:28;1.40;;;1.10;;
65289;SDS011;51893;59.754;10.110;2024-03-06T07:49:57;1.50;;;1.30;;
65289;SDS011;51893;59.754;10.110;2024-03-06T07:52:25;1.60;;;1.50;;
65289;SDS011;51893;59.754;10.110;2024-03-06T07:54:52;1.50;;;1.40;;
65289;SDS011;51893;59.754;10.110;2024-03-06T07:57:19;2.00;;;1.80;;
65289;SDS011;51893;59.754;10.110;2024-03-06T07:59:46;3.00;;;1.50;;
65289;SDS011;51893;59.754;10.110;2024-03-06T08:02:13;1.90;;;1.10;;
65289;SDS011;51893;59.754;10.110;2024-03-06T08:04:40;1.30;;;1.20;;
65289;SDS011;51893;59.754;10.110;2024-03-06T08:07:07;1.50;;;1.40;;
65289;SDS011;51893;59.754;10.110;2024-03-06T08:09:34;1.20;;;1.10;;
65289;SDS011;51893;59.754;10.110;2024-03-06T08:12:01;4.20;;;1.40;;
65289;SDS011;51893;59.754;10.110;2024-03-06T08:14:29;1.20;;;1.10;;
65289;SDS011;51893;59.754;10.110;2024-03-06T08:16:56;1.80;;;1.30;;
65289;SDS011;51893;59.754;10.110;2024-03-06T08:19:23;6.20;;;1.50;;
65289;SDS011;51893;59.754;10.110;2024-03-06T08:21:51;3.00;;;1.40;;
65289;SDS011;51893;59.754;10.110;2024-03-06T08:24:18;1.00;;;1.00;;
65289;SDS011;51893;59.754;10.110;2024-03-06T08:26:45;3.30;;;1.40;;
65289;SDS011;51893;59.754;10.110;2024-03-06T08:29:12;7.10;;;1.40;;
65289;SDS011;51893;59.754;10.110;2024-03-06T08:31:39;2.10;;;1.30;;
65289;SDS011;51893;59.754;10.110;2024-03-06T08:34:07;2.70;;;1.30;;
65289;SDS011;51893;59.754;10.110;2024-03-06T08:36:34;1.50;;;1.30;;
65289;SDS011;51893;59.754;10.110;2024-03-06T08:39:01;3.70;;;1.10;;
65289;SDS011;51893;59.754;10.110;2024-03-06T08:41:28;1.20;;;1.10;;
65289;SDS011;51893;59.754;10.110;2024-03-06T08:43:57;2.10;;;1.20;;
65289;SDS011;51893;59.754;10.110;2024-03-06T08:46:24;1.30;;;1.20;;
65289;SDS011;51893;59.754;10.110;2024-03-06T08:48:51;1.20;;;1.10;;
65289;SDS011;51893;59.754;10.110;2024-03-06T08:51:18;1.70;;;1.30;;
65289;SDS011;51893;59.754;10.110;2024-03-06T08:53:45;1.30;;;1.10;;
65289;SDS011;51893;59.754;10.110;2024-03-06T08:56:15;1.50;;;1.40;;
65289;SDS011;51893;59.754;10.110;2024-03-06T08:58:42;4.00;;;1.40;;
65289;SDS011;51893;59.754;10.110;2024-03-06T09:01:10;1.30;;;1.20;;
65289;SDS011;51893;59.754;10.110;2024-03-06T09:03:37;1.50;;;1.40;;
65289;SDS011;51893;59.754;10.110;2024-03-06T09:06:04;3.00;;;1.30;;
65289;SDS011;51893;59.754;10.110;2024-03-06T09:08:31;1.20;;;1.10;;
65289;SDS011;51893;59.754;10.110;2024-03-06T09:10:58;1.30;;;1.00;;
65289;SDS011;51893;59.754;10.110;2024-03-06T09:13:26;1.50;;;1.30;;
65289;SDS011;51893;59.754;10.110;2024-03-06T09:15:53;2.50;;;1.30;;
65289;SDS011;51893;59.754;10.110;2024-03-06T09:18:20;1.10;;;1.10;;
65289;SDS011;51893;59.754;10.110;2024-03-06T09:20:47;1.90;;;1.40;;
65289;SDS011;51893;59.754;10.110;2024-03-06T09:23:14;1.50;;;1.40;;
65289;SDS011;51893;59.754;10.110;2024-03-06T09:25:42;3.90;;;1.20;;
65289;SDS011;51893;59.754;10.110;2024-03-06T09:28:09;2.40;;;1.10;;
65289;SDS011;51893;59.754;10.110;2024-03-06T09:30:36;3.70;;;1.30;;
65289;SDS011;51893;59.754;10.110;2024-03-06T09:33:04;2.10;;;1.30;;
65289;SDS011;51893;59.754;10.110;2024-03-06T09:35:31;1.40;;;1.30;;
65289;SDS011;51893;59.754;10.110;2024-03-06T09:37:59;1.50;;;1.10;;
65289;SDS011;51893;59.754;10.110;2024-03-06T09:40:28;8.40;;;1.20;;
65289;SDS011;51893;59.754;10.110;2024-03-06T09:42:56;0.80;;;0.80;;
65289;SDS011;51893;59.754;10.110;2024-03-06T09:45:23;3.80;;;1.50;;
65289;SDS011;51893;59.754;10.110;2024-03-06T09:47:50;2.30;;;1.50;;
65289;SDS011;51893;59.754;10.110;2024-03-06T09:50:24;1.70;;;1.20;;
65289;SDS011;51893;59.754;10.110;2024-03-06T09:52:55;5.80;;;1.30;;
65289;SDS011;51893;59.754;10.110;2024-03-06T09:55:25;1.30;;;1.20;;
65289;SDS011;51893;59.754;10.110;2024-03-06T09:57:53;1.90;;;1.40;;
65289;SDS011;51893;59.754;10.110;2024-03-06T10:00:20;2.00;;;1.20;;
65289;SDS011;51893;59.754;10.110;2024-03-06T10:02:57;1.60;;;1.50;;
65289;SDS011;51893;59.754;10.110;2024-03-06T10:05:28;1.70;;;1.30;;
65289;SDS011;51893;59.754;10.110;2024-03-06T10:07:58;1.60;;;1.30;;
65289;SDS011;51893;59.754;10.110;2024-03-06T10:10:26;1.00;;;1.00;;
65289;SDS011;51893;59.754;10.110;2024-03-06T10:12:54;1.20;;;1.10;;
65289;SDS011;51893;59.754;10.110;2024-03-06T10:15:23;4.20;;;1.30;;
65289;SDS011;51893;59.754;10.110;2024-03-06T10:18:10;4.10;;;1.80;;
65289;SDS011;51893;59.754;10.110;2024-03-06T10:20:42;25.50;;;2.20;;
65289;SDS011;51893;59.754;10.110;2024-03-06T10:23:14;2.80;;;1.60;;
65289;SDS011;51893;59.754;10.110;2024-03-06T10:25:50;3.80;;;1.40;;
65289;SDS011;51893;59.754;10.110;2024-03-06T10:28:20;1.20;;;1.10;;
65289;SDS011;51893;59.754;10.110;2024-03-06T10:31:03;2.70;;;1.30;;
65289;SDS011;51893;59.754;10.110;2024-03-06T10:33:34;1.10;;;1.00;;
65289;SDS011;51893;59.754;10.110;2024-03-06T10:36:01;0.90;;;0.90;;
65289;SDS011;51893;59.754;10.110;2024-03-06T10:38:35;14.60;;;1.60;;
65289;SDS011;51893;59.754;10.110;2024-03-06T10:41:08;2.90;;;1.10;;
65289;SDS011;51893;59.754;10.110;2024-03-06T10:43:43;1.50;;;1.30;;
65289;SDS011;51893;59.754;10.110;2024-03-06T10:48:48;1.90;;;1.20;;
65289;SDS011;51893;59.754;10.110;2024-03-06T10:51:17;1.40;;;1.30;;
65289;SDS011;51893;59.754;10.110;2024-03-06T10:53:45;2.50;;;1.40;;
65289;SDS011;51893;59.754;10.110;2024-03-06T10:56:13;3.60;;;1.20;;
65289;SDS011;51893;59.754;10.110;2024-03-06T10:58:41;5.90;;;1.40;;
65289;SDS011;51893;59.754;10.110;2024-03-06T11:01:10;1.70;;;1.50;;
65289;SDS011;51893;59.754;10.110;2024-03-06T11:03:39;5.50;;;1.40;;
65289;SDS011;51893;59.754;10.110;2024-03-06T11:06:07;2.70;;;1.40;;
65289;SDS011;51893;59.754;10.110;2024-03-06T11:08:35;3.30;;;1.20;;
65289;SDS011;51893;59.754;10.110;2024-03-06T11:11:19;5.50;;;1.60;;
65289;SDS011;51893;59.754;10.110;2024-03-06T11:13:55;4.00;;;1.10;;
65289;SDS011;51893;59.754;10.110;2024-03-06T11:16:27;1.20;;;1.10;;
65289;SDS011;51893;59.754;10.110;2024-03-06T11:19:07;4.70;;;1.50;;
65289;SDS011;51893;59.754;10.110;2024-03-06T11:21:45;3.20;;;1.20;;
65289;SDS011;51893;59.754;10.110;2024-03-06T11:24:37;3.40;;;1.20;;
65289;SDS011;51893;59.754;10.110;2024-03-06T11:27:04;6.70;;;1.30;;
65289;SDS011;51893;59.754;10.110;2024-03-06T11:32:30;3.50;;;1.30;;
65289;SDS011;51893;59.754;10.110;2024-03-06T11:34:58;2.60;;;1.40;;
65289;SDS011;51893;59.754;10.110;2024-03-06T11:37:26;1.30;;;1.20;;
65289;SDS011;51893;59.754;10.110;2024-03-06T11:39:59;2.80;;;1.20;;
65289;SDS011;51893;59.754;10.110;2024-03-06T11:42:35;3.00;;;1.20;;
65289;SDS011;51893;59.754;10.110;2024-03-06T11:45:16;3.20;;;1.50;;
65289;SDS011;51893;59.754;10.110;2024-03-06T11:48:01;4.20;;;1.30;;
65289;SDS011;51893;59.754;10.110;2024-03-06T11:50:30;3.80;;;1.40;;
65289;SDS011;51893;59.754;10.110;2024-03-06T11:52:59;1.40;;;1.30;;
65289;SDS011;51893;59.754;10.110;2024-03-06T11:55:26;1.80;;;1.20;;
65289;SDS011;51893;59.754;10.110;2024-03-06T11:57:53;2.20;;;1.20;;
65289;SDS011;51893;59.754;10.110;2024-03-06T12:00:24;3.70;;;1.20;;
65289;SDS011;51893;59.754;10.110;2024-03-06T12:02:51;4.60;;;1.40;;
65289;SDS011;51893;59.754;10.110;2024-03-06T12:05:18;3.30;;;1.50;;
65289;SDS011;51893;59.754;10.110;2024-03-06T12:07:47;4.20;;;1.20;;
65289;SDS011;51893;59.754;10.110;2024-03-06T12:10:18;2.90;;;1.60;;
65289;SDS011;51893;59.754;10.110;2024-03-06T12:12:45;1.10;;;1.00;;
65289;SDS011;51893;59.754;10.110;2024-03-06T12:15:14;1.40;;;1.30;;
65289;SDS011;51893;59.754;10.110;2024-03-06T12:17:46;1.40;;;1.30;;
65289;SDS011;51893;59.754;10.110;2024-03-06T12:20:16;4.00;;;1.60;;
65289;SDS011;51893;59.754;10.110;2024-03-06T12:22:53;1.50;;;1.10;;
65289;SDS011;51893;59.754;10.110;2024-03-06T12:25:24;3.50;;;1.30;;
65289;SDS011;51893;59.754;10.110;2024-03-06T12:27:54;1.90;;;1.20;;
65289;SDS011;51893;59.754;10.110;2024-03-06T12:30:23;3.10;;;1.20;;
65289;SDS011;51893;59.754;10.110;2024-03-06T12:33:00;2.80;;;1.30;;
65289;SDS011;51893;59.754;10.110;2024-03-06T12:35:32;2.70;;;1.50;;
65289;SDS011;51893;59.754;10.110;2024-03-06T12:37:59;3.30;;;1.50;;
65289;SDS011;51893;59.754;10.110;2024-03-06T12:40:26;1.40;;;1.30;;
65289;SDS011;51893;59.754;10.110;2024-03-06T12:42:55;1.10;;;1.10;;
65289;SDS011;51893;59.754;10.110;2024-03-06T12:45:25;2.00;;;1.40;;
65289;SDS011;51893;59.754;10.110;2024-03-06T12:47:54;1.40;;;1.30;;
65289;SDS011;51893;59.754;10.110;2024-03-06T12:50:22;3.80;;;1.10;;
65289;SDS011;51893;59.754;10.110;2024-03-06T12:52:50;1.80;;;1.20;;
65289;SDS011;51893;59.754;10.110;2024-03-06T12:55:19;3.10;;;1.30;;
65289;SDS011;51893;59.754;10.110;2024-03-06T12:57:46;9.60;;;1.50;;
65289;SDS011;51893;59.754;10.110;2024-03-06T13:00:14;4.60;;;1.40;;
65289;SDS011;51893;59.754;10.110;2024-03-06T13:02:45;10.30;;;1.80;;
65289;SDS011;51893;59.754;10.110;2024-03-06T13:05:12;1.00;;;0.80;;
65289;SDS011;51893;59.754;10.110;2024-03-06T13:07:42;8.10;;;1.80;;
65289;SDS011;51893;59.754;10.110;2024-03-06T13:10:10;1.40;;;1.30;;
65289;SDS011;51893;59.754;10.110;2024-03-06T13:12:38;2.50;;;1.30;;
65289;SDS011;51893;59.754;10.110;2024-03-06T13:15:05;5.40;;;2.00;;
65289;SDS011;51893;59.754;10.110;2024-03-06T13:17:35;0.80;;;0.80;;
65289;SDS011;51893;59.754;10.110;2024-03-06T13:20:03;2.50;;;1.50;;
65289;SDS011;51893;59.754;10.110;2024-03-06T13:22:30;2.70;;;1.00;;
65289;SDS011;51893;59.754;10.110;2024-03-06T13:24:58;9.10;;;1.30;;
65289;SDS011;51893;59.754;10.110;2024-03-06T13:27:25;5.80;;;1.10;;
65289;SDS011;51893;59.754;10.110;2024-03-06T13:29:52;2.40;;;1.30;;
65289;SDS011;51893;59.754;10.110;2024-03-06T13:32:20;4.50;;;1.50;;
65289;SDS011;51893;59.754;10.110;2024-03-06T13:34:47;2.20;;;1.10;;
65289;SDS011;51893;59.754;10.110;2024-03-06T13:37:14;1.20;;;1.10;;
65289;SDS011;51893;59.754;10.110;2024-03-06T13:39:43;2.60;;;1.30;;
65289;SDS011;51893;59.754;10.110;2024-03-06T13:42:10;2.90;;;1.40;;
65289;SDS011;51893;59.754;10.110;2024-03-06T13:44:37;1.20;;;1.10;;
65289;SDS011;51893;59.754;10.110;2024-03-06T13:47:04;3.00;;;1.20;;
65289;SDS011;51893;59.754;10.110;2024-03-06T13:49:39;4.40;;;1.40;;
65289;SDS011;51893;59.754;10.110;2024-03-06T13:52:09;2.70;;;1.50;;
65289;SDS011;51893;59.754;10.110;2024-03-06T13:54:38;1.10;;;1.00;;
65289;SDS011;51893;59.754;10.110;2024-03-06T13:57:08;1.40;;;1.30;;
65289;SDS011;51893;59.754;10.110;2024-03-06T13:59:35;1.90;;;1.10;;
65289;SDS011;51893;59.754;10.110;2024-03-06T14:02:03;2.20;;;1.20;;
65289;SDS011;51893;59.754;10.110;2024-03-06T14:04:30;1.60;;;1.20;;
65289;SDS011;51893;59.754;10.110;2024-03-06T14:06:57;1.70;;;1.30;;
65289;SDS011;51893;59.754;10.110;2024-03-06T14:09:26;2.60;;;1.50;;
65289;SDS011;51893;59.754;10.110;2024-03-06T14:11:54;1.80;;;0.90;;
65289;SDS011;51893;59.754;10.110;2024-03-06T14:14:21;1.80;;;1.30;;
65289;SDS011;51893;59.754;10.110;2024-03-06T14:16:48;6.30;;;1.30;;
65289;SDS011;51893;59.754;10.110;2024-03-06T14:19:15;3.20;;;1.20;;
65289;SDS011;51893;59.754;10.110;2024-03-06T14:21:42;4.80;;;1.30;;
65289;SDS011;51893;59.754;10.110;2024-03-06T14:24:10;1.40;;;1.10;;
65289;SDS011;51893;59.754;10.110;2024-03-06T14:26:38;1.30;;;1.20;;
65289;SDS011;51893;59.754;10.110;2024-03-06T14:29:06;3.30;;;1.40;;
65289;SDS011;51893;59.754;10.110;2024-03-06T14:31:35;1.40;;;1.20;;
65289;SDS011;51893;59.754;10.110;2024-03-06T14:34:02;7.50;;;1.60;;
65289;SDS011;51893;59.754;10.110;2024-03-06T14:36:33;4.10;;;1.40;;
65289;SDS011;51893;59.754;10.110;2024-03-06T14:39:01;2.60;;;1.20;;
65289;SDS011;51893;59.754;10.110;2024-03-06T14:41:29;4.70;;;1.50;;
65289;SDS011;51893;59.754;10.110;2024-03-06T14:43:57;3.60;;;1.30;;
65289;SDS011;51893;59.754;10.110;2024-03-06T14:46:24;2.80;;;1.50;;
65289;SDS011;51893;59.754;10.110;2024-03-06T14:48:51;1.60;;;1.50;;
65289;SDS011;51893;59.754;10.110;2024-03-06T14:51:18;1.80;;;1.40;;
65289;SDS011;51893;59.754;10.110;2024-03-06T14:53:46;4.90;;;1.50;;